Time;durP1;ratioP1;P1;durP2;ratioP2;P2;SDS_P1;SDS_P2;PMS_P1;PMS_P2;Temp;Humidity;BMP_temperature;BMP_pressure;BME280_temperature;BME280_humidity;BME280_pressure;Samples;Min_cycle;Max_cycle;Signal;HPM_P1;HPM_P2
2022/05/27 00:01:17;;;;;;;32.03;6.50;;;14.10;99.90;;;;;;5055809;28;20045;-86
2022/05/27 00:03:43;;;;;;;30.95;5.80;;;14.00;99.90;;;;;;5055990;28;20106;-87
2022/05/27 00:06:09;;;;;;;23.42;4.93;;;14.00;99.90;;;;;;5038319;28;20477;-87
2022/05/27 00:08:35;;;;;;;30.33;6.70;;;14.00;99.90;;;;;;5055817;28;20045;-87
2022/05/27 00:11:02;;;;;;;31.70;5.22;;;14.10;99.90;;;;;;5055558;28;20033;-87
2022/05/27 00:13:28;;;;;;;30.15;5.95;;;14.00;99.90;;;;;;5037934;28;20067;-87
2022/05/27 00:15:54;;;;;;;29.25;6.18;;;14.00;99.90;;;;;;5055367;28;20107;-85
2022/05/27 00:18:20;;;;;;;31.63;5.20;;;14.00;99.90;;;;;;5055894;28;20419;-87
2022/05/27 00:20:47;;;;;;;18.00;4.65;;;13.90;99.90;;;;;;5037814;28;20045;-87
2022/05/27 00:23:15;;;;;;;27.40;5.18;;;13.90;99.90;;;;;;5036871;28;20565;-88
2022/05/27 00:25:41;;;;;;;31.95;6.10;;;14.00;99.90;;;;;;5037640;28;20401;-88
2022/05/27 00:28:08;;;;;;;19.98;6.03;;;14.00;99.90;;;;;;5037445;28;20523;-88
2022/05/27 00:30:34;;;;;;;23.85;5.18;;;13.90;99.90;;;;;;5037501;28;20091;-88
2022/05/27 00:32:59;;;;;;;18.45;5.15;;;13.90;99.90;;;;;;5037071;28;20053;-88
2022/05/27 00:35:25;;;;;;;22.75;4.57;;;13.90;99.90;;;;;;5037430;28;20048;-87
2022/05/27 00:37:51;;;;;;;20.88;5.10;;;13.90;99.90;;;;;;5037485;28;20052;-89
2022/05/27 00:40:19;;;;;;;25.60;4.43;;;13.90;99.90;;;;;;5037370;28;20039;-88
2022/05/27 00:42:46;;;;;;;26.55;4.60;;;13.80;99.90;;;;;;5037405;28;20040;-88
2022/05/27 00:45:19;;;;;;;26.20;4.43;;;13.80;99.90;;;;;;5055076;28;20052;-87
2022/05/27 00:47:47;;;;;;;36.80;4.53;;;13.80;99.90;;;;;;5037034;28;20084;-88
2022/05/27 00:50:16;;;;;;;20.73;4.95;;;13.70;99.90;;;;;;5055010;28;20468;-87
2022/05/27 00:52:45;;;;;;;27.90;4.90;;;13.70;99.90;;;;;;5037326;28;20049;-87
2022/05/27 00:55:16;;;;;;;22.95;4.93;;;13.70;99.90;;;;;;5036915;28;20060;-86
2022/05/27 00:57:51;;;;;;;26.17;5.43;;;13.60;99.90;;;;;;5037182;28;20057;-88
2022/05/27 01:00:21;;;;;;;31.98;5.65;;;13.60;99.90;;;;;;5037238;28;20037;-87
2022/05/27 01:02:47;;;;;;;23.52;4.80;;;13.60;99.90;;;;;;5037078;28;20049;-88
2022/05/27 01:05:17;;;;;;;28.50;5.28;;;13.60;99.90;;;;;;5037131;28;20048;-87
2022/05/27 01:07:42;;;;;;;24.08;4.22;;;13.60;99.90;;;;;;5036650;28;20481;-87
2022/05/27 01:10:14;;;;;;;21.08;3.90;;;13.60;99.90;;;;;;5054828;28;20062;-88
2022/05/27 01:12:42;;;;;;;15.20;3.47;;;13.50;99.90;;;;;;5054560;28;20519;-88
2022/05/27 01:15:34;;;;;;;19.70;3.22;;;13.50;99.90;;;;;;5036480;28;20087;-88
2022/05/27 01:18:08;;;;;;;26.52;4.38;;;13.50;99.90;;;;;;5036333;28;20064;-87
2022/05/27 01:21:02;;;;;;;15.38;2.88;;;13.50;99.90;;;;;;5054813;28;20408;-88
2022/05/27 01:23:36;;;;;;;14.07;3.10;;;13.50;99.90;;;;;;5036508;28;20037;-88
2022/05/27 01:26:15;;;;;;;22.95;4.00;;;13.50;99.90;;;;;;5036562;28;20053;-88
2022/05/27 01:29:05;;;;;;;29.40;4.13;;;13.50;99.90;;;;;;5036298;28;20045;-87
2022/05/27 01:31:46;;;;;;;19.38;4.05;;;13.40;99.90;;;;;;5012242;28;20081;-88
2022/05/27 01:34:34;;;;;;;23.85;4.28;;;13.30;99.90;;;;;;5036593;28;20044;-87
2022/05/27 01:37:31;;;;;;;24.08;4.28;;;13.30;99.90;;;;;;5036251;28;20088;-88
2022/05/27 01:40:12;;;;;;;18.67;3.53;;;13.30;99.90;;;;;;5035363;28;20061;-88
2022/05/27 01:42:42;;;;;;;13.80;3.50;;;13.30;99.90;;;;;;5036559;28;20036;-88
2022/05/27 01:45:19;;;;;;;18.52;3.85;;;13.30;99.90;;;;;;5054078;28;20081;-88
2022/05/27 01:48:10;;;;;;;19.15;3.13;;;13.30;99.90;;;;;;5036077;28;20119;-88
2022/05/27 01:50:49;;;;;;;21.05;3.30;;;13.30;99.90;;;;;;5036412;28;20457;-87
2022/05/27 01:53:19;;;;;;;19.23;3.10;;;13.30;99.90;;;;;;5036086;28;20045;-88
2022/05/27 01:55:58;;;;;;;23.65;4.82;;;13.30;99.90;;;;;;5035896;28;20435;-87
2022/05/27 01:58:30;;;;;;;23.27;4.28;;;13.20;99.90;;;;;;5035965;28;20116;-87
2022/05/27 02:00:56;;;;;;;20.13;5.00;;;13.20;99.90;;;;;;5053929;28;20037;-88
2022/05/27 02:03:28;;;;;;;15.85;3.95;;;13.20;99.90;;;;;;5036477;28;20055;-87
2022/05/27 02:06:06;;;;;;;16.53;2.93;;;13.20;99.90;;;;;;5040596;28;20135;-89
2022/05/27 02:08:50;;;;;;;19.90;3.70;;;13.20;99.90;;;;;;5037586;28;20336;-91
2022/05/27 02:11:19;;;;;;;22.20;4.25;;;13.00;99.90;;;;;;5053660;28;20045;-88
2022/05/27 02:14:11;;;;;;;15.70;2.85;;;13.10;99.90;;;;;;5036093;28;20059;-87
2022/05/27 02:16:45;;;;;;;19.92;3.47;;;13.10;99.90;;;;;;5035767;28;20057;-86
2022/05/27 02:19:36;;;;;;;20.77;4.97;;;13.10;99.90;;;;;;5035687;28;20059;-86
2022/05/27 02:22:14;;;;;;;18.02;3.50;;;13.00;99.90;;;;;;5035790;28;20052;-85
2022/05/27 02:24:44;;;;;;;16.42;3.88;;;13.00;99.90;;;;;;5053481;28;20041;-86
2022/05/27 02:27:29;;;;;;;17.27;5.05;;;13.00;99.90;;;;;;5053491;28;20045;-86
2022/05/27 02:30:00;;;;;;;19.20;3.45;;;13.00;99.90;;;;;;5035897;28;20063;-85
2022/05/27 02:32:36;;;;;;;20.35;4.35;;;13.00;99.90;;;;;;5035606;28;20041;-86
2022/05/27 02:35:13;;;;;;;24.27;4.63;;;12.90;99.90;;;;;;5053436;28;20098;-88
2022/05/27 02:37:46;;;;;;;29.23;4.43;;;12.90;99.90;;;;;;5036205;28;20128;-86
2022/05/27 02:40:20;;;;;;;31.48;5.45;;;12.80;99.90;;;;;;5035672;28;20049;-87
2022/05/27 02:43:04;;;;;;;30.85;5.20;;;12.80;99.90;;;;;;5035794;28;20046;-86
2022/05/27 02:45:39;;;;;;;21.83;5.22;;;12.70;99.90;;;;;;5035784;28;20178;-87
2022/05/27 02:48:05;;;;;;;28.73;4.10;;;12.70;99.90;;;;;;5057236;28;20048;-89
2022/05/27 02:51:04;;;;;;;26.15;4.88;;;12.60;99.90;;;;;;5039092;28;20419;-89
2022/05/27 02:53:32;;;;;;;18.95;4.10;;;12.60;99.90;;;;;;5039477;28;20045;-88
2022/05/27 02:56:09;;;;;;;18.92;3.58;;;12.60;99.90;;;;;;5039420;28;20041;-89
2022/05/27 02:58:34;;;;;;;15.73;3.40;;;12.60;99.90;;;;;;5039241;28;20041;-89
2022/05/27 03:01:01;;;;;;;14.65;3.53;;;12.60;99.90;;;;;;5057190;28;20045;-91
2022/05/27 03:03:27;;;;;;;16.60;3.45;;;12.70;99.90;;;;;;5039387;28;20124;-89
2022/05/27 03:06:21;;;;;;;19.30;3.30;;;12.70;99.90;;;;;;5039344;28;20136;-89
2022/05/27 03:09:17;;;;;;;26.92;4.38;;;12.70;99.90;;;;;;5038716;28;20051;-89
2022/05/27 03:12:06;;;;;;;24.73;3.65;;;12.70;99.90;;;;;;5038738;28;20052;-89
2022/05/27 03:15:04;;;;;;;19.48;3.67;;;12.70;99.90;;;;;;5037818;28;20067;-89
2022/05/27 03:17:58;;;;;;;19.50;4.20;;;12.70;99.90;;;;;;5038612;28;20065;-87
2022/05/27 03:20:45;;;;;;;25.30;4.28;;;12.70;99.90;;;;;;5038998;28;20061;-90
2022/05/27 03:23:44;;;;;;;16.05;3.92;;;12.70;99.90;;;;;;5038681;28;20102;-91
2022/05/27 03:26:25;;;;;;;23.15;3.70;;;12.60;99.90;;;;;;5038703;28;20045;-91
2022/05/27 03:29:13;;;;;;;17.27;4.88;;;12.70;99.90;;;;;;5038462;28;20048;-90
2022/05/27 03:31:48;;;;;;;25.00;3.88;;;12.70;99.90;;;;;;5056700;28;20124;-90
2022/05/27 03:34:28;;;;;;;19.58;4.22;;;12.70;99.90;;;;;;5056270;28;20049;-90
2022/05/27 03:37:01;;;;;;;28.70;4.13;;;12.70;99.90;;;;;;5038726;28;20053;-90
2022/05/27 03:39:34;;;;;;;32.95;5.43;;;12.80;99.90;;;;;;5038382;28;20114;-90
2022/05/27 03:42:03;;;;;;;28.70;6.53;;;12.80;99.90;;;;;;5038282;28;20506;-91
2022/05/27 03:44:33;;;;;;;28.08;4.00;;;12.80;99.90;;;;;;5038485;28;20156;-90
2022/05/27 03:47:00;;;;;;;28.35;4.38;;;12.80;99.90;;;;;;5038346;28;20523;-90
2022/05/27 03:49:27;;;;;;;21.58;3.75;;;12.80;99.90;;;;;;5038182;28;20094;-90
2022/05/27 03:51:57;;;;;;;25.60;4.50;;;12.70;99.90;;;;;;5038365;28;20041;-90
2022/05/27 03:54:22;;;;;;;21.42;3.92;;;12.70;99.90;;;;;;5038995;28;20052;-91
2022/05/27 03:56:49;;;;;;;20.58;3.80;;;12.80;99.90;;;;;;5055457;28;20041;-90
2022/05/27 03:59:17;;;;;;;29.20;4.55;;;12.80;99.90;;;;;;5037548;28;20396;-87
2022/05/27 04:01:46;;;;;;;20.90;4.47;;;12.70;99.90;;;;;;5038124;28;20492;-89
2022/05/27 04:04:15;;;;;;;23.27;3.60;;;12.70;99.90;;;;;;5038028;28;20051;-89
2022/05/27 04:06:40;;;;;;;22.20;4.57;;;12.80;99.90;;;;;;5055695;28;20052;-89
2022/05/27 04:09:06;;;;;;;22.05;4.25;;;12.80;99.90;;;;;;5038167;28;20053;-89
2022/05/27 04:11:32;;;;;;;30.33;4.50;;;12.80;99.90;;;;;;5037966;28;20041;-90
2022/05/27 04:13:58;;;;;;;18.85;4.22;;;12.90;99.90;;;;;;5037997;28;20056;-89
2022/05/27 04:16:24;;;;;;;22.67;4.32;;;12.90;99.90;;;;;;5037432;28;20132;-89
2022/05/27 04:18:51;;;;;;;30.60;4.57;;;12.90;99.90;;;;;;5037604;28;20131;-88
2022/05/27 04:21:17;;;;;;;25.45;4.15;;;13.00;99.90;;;;;;5055647;28;20044;-92
2022/05/27 04:23:43;;;;;;;18.63;4.82;;;12.90;99.90;;;;;;5037792;28;20045;-89
2022/05/27 04:26:09;;;;;;;35.33;5.82;;;12.90;99.90;;;;;;5055366;28;20041;-89
2022/05/27 04:28:35;;;;;;;26.90;3.35;;;12.90;99.90;;;;;;5055439;28;20102;-89
2022/05/27 04:31:02;;;;;;;28.77;4.45;;;12.90;99.90;;;;;;5037469;28;20114;-89
2022/05/27 04:33:28;;;;;;;28.92;5.43;;;12.90;99.90;;;;;;5055293;28;20045;-90
2022/05/27 04:35:55;;;;;;;38.50;5.60;;;12.90;99.90;;;;;;5037494;28;20053;-89
2022/05/27 04:38:22;;;;;;;19.77;4.45;;;12.90;99.90;;;;;;5037281;28;20124;-89
2022/05/27 04:40:48;;;;;;;35.50;5.25;;;12.90;99.90;;;;;;5037415;28;20073;-89
2022/05/27 04:43:14;;;;;;;21.08;5.00;;;12.90;99.90;;;;;;5054998;28;20052;-88
2022/05/27 04:45:40;;;;;;;33.38;4.93;;;12.90;99.90;;;;;;5054947;28;20128;-88
2022/05/27 04:48:06;;;;;;;30.92;5.22;;;12.80;99.90;;;;;;5037080;28;20163;-87
2022/05/27 04:50:32;;;;;;;34.00;4.72;;;12.90;99.90;;;;;;5037253;28;20129;-88
2022/05/27 04:52:59;;;;;;;34.22;6.03;;;12.80;99.90;;;;;;5055032;28;20045;-88
2022/05/27 04:55:24;;;;;;;26.65;4.20;;;12.90;99.90;;;;;;5054878;28;20037;-88
2022/05/27 04:57:53;;;;;;;32.75;5.88;;;12.90;99.90;;;;;;5036818;28;20055;-85
2022/05/27 05:00:28;;;;;;;30.83;6.10;;;12.90;99.90;;;;;;5054808;28;20041;-86
2022/05/27 05:02:54;;;;;;;20.65;4.63;;;12.90;99.90;;;;;;5054502;28;20467;-86
2022/05/27 05:05:21;;;;;;;23.38;5.07;;;12.90;99.90;;;;;;5036898;28;20508;-86
2022/05/27 05:07:57;;;;;;;35.20;5.90;;;12.90;99.90;;;;;;5036653;28;20041;-85
2022/05/27 05:10:23;;;;;;;27.00;5.53;;;12.90;99.90;;;;;;5036727;28;20128;-84
2022/05/27 05:12:50;;;;;;;23.23;3.95;;;12.90;99.90;;;;;;5037009;28;20044;-86
2022/05/27 05:15:16;;;;;;;29.48;4.30;;;12.90;99.90;;;;;;5036799;28;20041;-86
2022/05/27 05:17:43;;;;;;;38.97;5.88;;;12.80;99.90;;;;;;5036256;28;20114;-84
2022/05/27 05:20:11;;;;;;;45.47;6.65;;;12.80;99.90;;;;;;5036569;28;20451;-84
2022/05/27 05:22:36;;;;;;;28.80;5.35;;;12.90;99.90;;;;;;5036662;28;20049;-88
2022/05/27 05:25:02;;;;;;;37.70;5.28;;;12.90;99.90;;;;;;5036587;28;20163;-91
2022/05/27 05:27:28;;;;;;;28.85;5.80;;;12.90;99.90;;;;;;5036457;28;20048;-85
2022/05/27 05:29:56;;;;;;;37.08;5.30;;;12.90;99.90;;;;;;5036482;28;20049;-84
2022/05/27 05:32:22;;;;;;;33.72;6.00;;;12.90;99.90;;;;;;5054272;28;20040;-84
2022/05/27 05:34:48;;;;;;;27.23;4.20;;;13.00;99.90;;;;;;5036429;28;20071;-85
2022/05/27 05:37:15;;;;;;;22.17;4.30;;;13.10;99.90;;;;;;5036322;28;20055;-87
2022/05/27 05:39:41;;;;;;;28.80;4.55;;;13.20;99.90;;;;;;5036127;28;20477;-87
2022/05/27 05:42:08;;;;;;;26.02;4.53;;;13.30;99.90;;;;;;5036262;28;20047;-86
2022/05/27 05:44:35;;;;;;;26.55;4.07;;;13.40;99.90;;;;;;5036869;28;20499;-92
2022/05/27 05:47:02;;;;;;;29.58;5.50;;;13.40;99.90;;;;;;5036243;28;20060;-86
2022/05/27 05:49:27;;;;;;;24.48;6.03;;;13.30;99.90;;;;;;5036099;28;20493;-87
2022/05/27 05:51:56;;;;;;;25.67;5.72;;;13.30;99.90;;;;;;5035803;28;20048;-87
2022/05/27 05:54:23;;;;;;;27.40;4.60;;;13.30;99.90;;;;;;5053914;28;20116;-86
2022/05/27 05:56:49;;;;;;;25.48;4.70;;;13.20;99.90;;;;;;5053880;28;20086;-87
2022/05/27 05:59:16;;;;;;;32.17;5.22;;;13.10;99.90;;;;;;5035635;28;20055;-88
2022/05/27 06:01:43;;;;;;;28.65;4.57;;;13.10;99.90;;;;;;5035660;28;20049;-87
2022/05/27 06:04:09;;;;;;;33.30;4.63;;;13.20;99.90;;;;;;5035643;28;20507;-86
2022/05/27 06:06:35;;;;;;;27.98;5.05;;;13.30;99.90;;;;;;5036892;28;20072;-83
2022/05/27 06:09:02;;;;;;;22.27;3.40;;;13.40;99.90;;;;;;5035519;28;20045;-87
2022/05/27 06:11:27;;;;;;;35.38;5.45;;;13.60;99.90;;;;;;5035473;28;20052;-86
2022/05/27 06:13:53;;;;;;;37.80;5.70;;;13.80;99.90;;;;;;5035555;28;20049;-90
2022/05/27 06:16:19;;;;;;;30.23;5.30;;;13.70;99.90;;;;;;5035548;28;20164;-87
2022/05/27 06:18:46;;;;;;;24.65;5.35;;;13.60;99.90;;;;;;5035591;28;20088;-85
2022/05/27 06:21:12;;;;;;;45.83;7.40;;;13.60;99.90;;;;;;5033430;28;20064;-86
2022/05/27 06:23:38;;;;;;;35.45;4.80;;;13.80;99.90;;;;;;5035269;28;20041;-86
2022/05/27 06:26:07;;;;;;;34.88;5.10;;;13.90;99.90;;;;;;5052962;28;20047;-86
2022/05/27 06:36:47;;;;;;;31.77;4.53;;;13.70;99.90;;;;;;5035054;28;20048;-86
2022/05/27 06:39:13;;;;;;;30.90;4.13;;;13.90;99.90;;;;;;5035192;28;20079;-88
2022/05/27 06:41:39;;;;;;;48.65;6.43;;;14.20;99.90;;;;;;5035128;28;20094;-88
2022/05/27 06:44:06;;;;;;;38.42;4.85;;;14.20;99.90;;;;;;5035713;28;20044;-88
2022/05/27 06:46:33;;;;;;;34.03;5.88;;;14.20;99.90;;;;;;5035396;28;20048;-86
2022/05/27 06:48:58;;;;;;;34.65;5.05;;;14.30;99.90;;;;;;5034945;28;20049;-87
2022/05/27 06:51:25;;;;;;;36.45;6.07;;;14.20;99.90;;;;;;5035681;28;20410;-86
2022/05/27 06:53:50;;;;;;;34.17;5.50;;;14.10;99.90;;;;;;5053344;28;20045;-87
2022/05/27 06:56:17;;;;;;;33.75;6.13;;;14.20;99.90;;;;;;5053283;28;20045;-86
2022/05/27 06:58:43;;;;;;;42.13;6.68;;;14.30;99.90;;;;;;5035556;28;20551;-87
2022/05/27 07:01:10;;;;;;;35.25;5.68;;;14.40;99.90;;;;;;5034334;28;20107;-86
2022/05/27 07:03:39;;;;;;;40.80;5.88;;;14.60;99.90;;;;;;5034772;28;20511;-86
2022/05/27 07:06:06;;;;;;;34.53;5.80;;;14.40;99.90;;;;;;5052236;28;20124;-85
2022/05/27 07:08:32;;;;;;;32.88;5.45;;;14.30;99.90;;;;;;5033163;28;20463;-86
2022/05/27 07:10:58;;;;;;;35.47;5.88;;;14.10;99.90;;;;;;5034412;28;20495;-86
2022/05/27 07:13:24;;;;;;;40.47;6.90;;;14.00;99.90;;;;;;5035029;28;20033;-87
2022/05/27 07:15:49;;;;;;;32.08;4.70;;;14.20;99.90;;;;;;5051981;28;20049;-85
2022/05/27 07:18:15;;;;;;;33.50;5.20;;;14.20;99.90;;;;;;5034839;28;20386;-88
2022/05/27 07:20:41;;;;;;;32.17;5.00;;;14.20;99.90;;;;;;5034901;28;20049;-87
2022/05/27 07:23:07;;;;;;;41.13;6.75;;;14.10;99.90;;;;;;5035060;28;20048;-86
2022/05/27 07:25:34;;;;;;;27.38;6.05;;;14.10;99.90;;;;;;5053065;28;20123;-86
2022/05/27 07:28:07;;;;;;;30.98;6.15;;;14.10;99.90;;;;;;5034910;28;20493;-86
2022/05/27 07:30:34;;;;;;;36.40;5.78;;;14.30;99.90;;;;;;5035280;28;20033;-87
2022/05/27 07:33:01;;;;;;;22.10;4.88;;;14.00;99.90;;;;;;5054993;28;20045;-86
2022/05/27 07:35:27;;;;;;;32.15;5.10;;;14.10;99.90;;;;;;5038655;28;20063;-86
2022/05/27 07:37:52;;;;;;;34.88;5.63;;;14.20;99.90;;;;;;5056230;28;20045;-86
2022/05/27 07:40:19;;;;;;;26.65;5.10;;;14.20;99.90;;;;;;5056085;28;20040;-87
2022/05/27 07:42:48;;;;;;;28.85;4.43;;;14.10;99.90;;;;;;5038548;28;20148;-86
2022/05/27 07:45:15;;;;;;;26.08;5.18;;;14.20;99.90;;;;;;5055973;28;20135;-86
2022/05/27 07:47:42;;;;;;;27.00;5.22;;;14.10;99.90;;;;;;5038264;28;20495;-87
2022/05/27 07:50:11;;;;;;;34.00;5.55;;;14.40;99.90;;;;;;5038407;28;20041;-87
2022/05/27 07:52:37;;;;;;;29.60;6.75;;;14.40;99.90;;;;;;5037990;28;20060;-86
2022/05/27 07:55:04;;;;;;;22.88;4.15;;;14.60;99.90;;;;;;5038376;28;20389;-86
2022/05/27 07:57:30;;;;;;;39.20;5.57;;;14.70;99.90;;;;;;5038122;28;20519;-87
2022/05/27 07:59:59;;;;;;;31.13;5.90;;;14.90;99.90;;;;;;5055774;28;20095;-86
2022/05/27 08:02:25;;;;;;;38.22;5.20;;;15.10;99.90;;;;;;5037767;28;20044;-86
2022/05/27 08:04:52;;;;;;;38.50;6.28;;;15.00;99.90;;;;;;5055897;28;20045;-87
2022/05/27 08:07:18;;;;;;;24.33;5.43;;;15.00;99.90;;;;;;5037685;28;20501;-86
2022/05/27 08:09:44;;;;;;;28.05;5.18;;;14.80;99.90;;;;;;5037677;28;20056;-87
2022/05/27 08:12:10;;;;;;;41.78;5.60;;;14.80;99.90;;;;;;5055596;28;20037;-87
2022/05/27 08:14:36;;;;;;;45.35;6.43;;;14.80;99.90;;;;;;5055444;28;20087;-86
2022/05/27 08:17:03;;;;;;;33.42;5.22;;;14.50;99.90;;;;;;5055391;28;20053;-86
2022/05/27 08:19:28;;;;;;;41.13;5.57;;;14.30;99.90;;;;;;5037619;28;20049;-86
2022/05/27 08:21:54;;;;;;;33.40;5.47;;;14.20;99.90;;;;;;5037581;28;20037;-86
2022/05/27 08:24:19;;;;;;;31.05;5.32;;;14.30;99.90;;;;;;5037473;28;20061;-86
2022/05/27 08:26:47;;;;;;;28.70;5.80;;;14.10;99.90;;;;;;5037400;28;20083;-87
2022/05/27 08:29:13;;;;;;;32.90;5.55;;;14.00;99.90;;;;;;5037350;28;20044;-87
2022/05/27 08:31:39;;;;;;;36.33;4.55;;;14.10;99.90;;;;;;5037472;28;20056;-87
2022/05/27 08:39:42;;;;;;;43.03;6.70;;;14.60;99.90;;;;;;5037154;28;20049;-87
2022/05/27 08:42:27;;;;;;;34.45;5.75;;;14.50;99.90;;;;;;5037178;28;20404;-87
2022/05/27 08:45:07;;;;;;;24.50;4.32;;;14.50;99.90;;;;;;5036640;28;20053;-87
2022/05/27 08:47:45;;;;;;;37.10;4.57;;;14.50;99.90;;;;;;5037190;28;20045;-87
2022/05/27 08:50:23;;;;;;;40.83;5.72;;;14.40;99.90;;;;;;5037038;28;20049;-87
2022/05/27 08:52:55;;;;;;;47.17;6.30;;;14.40;99.90;;;;;;5036979;28;20044;-87
2022/05/27 09:01:21;;;;;;;32.70;5.50;;;14.80;99.90;;;;;;5036881;28;20057;-87
2022/05/27 09:04:05;;;;;;;29.52;4.78;;;14.60;99.90;;;;;;5037000;28;20102;-87
2022/05/27 09:07:06;;;;;;;39.35;4.93;;;14.90;99.90;;;;;;5054599;28;20079;-87
2022/05/27 09:09:32;;;;;;;21.95;4.00;;;14.90;99.90;;;;;;5016993;28;20048;-86
2022/05/27 09:12:09;;;;;;;34.88;6.43;;;15.00;99.90;;;;;;5036635;28;20064;-86
2022/05/27 09:14:39;;;;;;;27.13;4.70;;;15.00;99.90;;;;;;5036782;28;20045;-87
2022/05/27 09:17:07;;;;;;;30.20;4.75;;;15.10;99.90;;;;;;5036296;28;20057;-87
2022/05/27 09:19:46;;;;;;;36.92;6.03;;;15.20;99.90;;;;;;5036677;28;20037;-87
2022/05/27 09:22:41;;;;;;;32.78;4.80;;;15.20;99.90;;;;;;5036691;28;20144;-87
2022/05/27 09:25:09;;;;;;;23.17;4.95;;;15.00;99.90;;;;;;5054154;28;20102;-87
2022/05/27 09:27:43;;;;;;;37.00;5.57;;;14.80;99.90;;;;;;5036414;28;20040;-87
2022/05/27 09:30:15;;;;;;;30.70;6.45;;;14.90;99.90;;;;;;5036289;28;20053;-87
2022/05/27 09:32:56;;;;;;;33.20;6.72;;;14.90;99.90;;;;;;5036553;28;20116;-88
2022/05/27 09:35:35;;;;;;;24.23;5.07;;;15.00;99.90;;;;;;5036100;28;20091;-87
2022/05/27 09:38:03;;;;;;;34.50;5.90;;;15.10;99.90;;;;;;5036253;28;20143;-86
2022/05/27 09:40:54;;;;;;;39.95;5.28;;;15.10;99.90;;;;;;5036040;28;20047;-86
2022/05/27 09:43:33;;;;;;;34.60;5.93;;;15.00;99.90;;;;;;5036298;28;20126;-87
2022/05/27 09:46:02;;;;;;;34.13;4.90;;;15.20;99.90;;;;;;5036141;28;20049;-86
2022/05/27 09:48:28;;;;;;;41.90;6.63;;;15.10;99.90;;;;;;5035925;28;20388;-87
2022/05/27 09:50:57;;;;;;;35.92;5.15;;;15.30;99.90;;;;;;5036450;28;20045;-86
2022/05/27 09:53:31;;;;;;;34.17;4.97;;;15.40;99.90;;;;;;5035856;28;20496;-87
2022/05/27 09:56:04;;;;;;;39.15;5.97;;;15.50;99.90;;;;;;5035890;28;20055;-87
2022/05/27 09:58:36;;;;;;;26.60;6.43;;;15.40;99.90;;;;;;5035999;28;20060;-87
2022/05/27 10:01:24;;;;;;;32.38;5.57;;;15.70;99.90;;;;;;5036093;28;20476;-86
2022/05/27 10:04:13;;;;;;;29.38;6.07;;;15.40;99.90;;;;;;5035758;28;20041;-87
2022/05/27 10:06:39;;;;;;;33.28;5.60;;;15.30;99.90;;;;;;5035702;28;20045;-87
2022/05/27 10:09:23;;;;;;;43.38;6.57;;;15.30;99.90;;;;;;5053649;28;20116;-87
2022/05/27 10:11:51;;;;;;;36.97;5.93;;;15.20;99.90;;;;;;5035678;28;20094;-87
2022/05/27 10:14:31;;;;;;;28.98;5.93;;;15.10;99.90;;;;;;5035806;28;20084;-88
2022/05/27 10:17:10;;;;;;;26.63;4.70;;;15.20;99.90;;;;;;5053328;28;20398;-88
2022/05/27 10:19:38;;;;;;;27.30;5.25;;;15.20;99.90;;;;;;5035668;28;20123;-86
2022/05/27 10:22:19;;;;;;;33.22;6.38;;;14.90;99.90;;;;;;5035417;28;20048;-87
2022/05/27 10:24:54;;;;;;;35.28;5.88;;;14.90;99.90;;;;;;5035440;28;20124;-87
2022/05/27 10:27:23;;;;;;;24.55;4.45;;;14.70;99.90;;;;;;5035719;28;20271;-87
2022/05/27 10:29:51;;;;;;;34.58;5.63;;;14.80;99.90;;;;;;5035337;28;20080;-88
2022/05/27 10:32:32;;;;;;;41.83;6.50;;;14.90;99.90;;;;;;5053424;28;20041;-87
2022/05/27 10:35:00;;;;;;;38.72;4.60;;;14.80;99.90;;;;;;5035622;28;20053;-87
2022/05/27 10:37:40;;;;;;;32.58;4.72;;;14.70;99.90;;;;;;5053091;28;20505;-87
2022/05/27 10:40:36;;;;;;;29.42;5.25;;;14.90;99.90;;;;;;5035421;28;20048;-87
2022/05/27 10:43:11;;;;;;;28.85;5.60;;;15.00;99.90;;;;;;5034549;28;20479;-88
2022/05/27 10:45:57;;;;;;;40.35;5.75;;;15.00;99.90;;;;;;5035503;28;20049;-87
2022/05/27 10:48:42;;;;;;;34.17;5.63;;;14.80;99.90;;;;;;5053020;28;20049;-87
2022/05/27 10:51:27;;;;;;;34.95;5.57;;;14.80;99.90;;;;;;5035231;28;20102;-87
2022/05/27 10:54:11;;;;;;;33.13;5.97;;;14.80;99.90;;;;;;5035310;28;20037;-87
2022/05/27 11:03:14;;;;;;;22.85;4.50;;;14.90;99.90;;;;;;5053178;28;20049;-87
2022/05/27 11:06:14;;;;;;;30.08;5.05;;;15.10;99.90;;;;;;5035029;28;20388;-87
2022/05/27 11:08:58;;;;;;;21.55;4.90;;;15.10;99.90;;;;;;5037947;28;20067;-87
2022/05/27 11:11:50;;;;;;;29.70;4.55;;;15.00;99.90;;;;;;5038847;28;20045;-88
2022/05/27 11:17:15;;;;;;;23.45;4.30;;;15.00;99.90;;;;;;5038573;28;20053;-87
2022/05/27 11:19:58;;;;;;;25.20;4.32;;;15.20;99.90;;;;;;5038693;28;20060;-86
2022/05/27 11:22:56;;;;;;;24.95;4.22;;;15.20;99.90;;;;;;5038691;28;20052;-85
2022/05/27 11:25:53;;;;;;;22.27;4.57;;;15.10;99.90;;;;;;5038623;28;20131;-87
2022/05/27 11:28:54;;;;;;;34.10;6.97;;;15.10;99.90;;;;;;5038695;28;20431;-86
2022/05/27 11:31:59;;;;;;;31.75;4.28;;;15.00;99.90;;;;;;5038691;28;20045;-87
2022/05/27 11:34:34;;;;;;;26.67;4.32;;;15.00;99.90;;;;;;5021489;28;20057;-86
2022/05/27 11:37:33;;;;;;;24.50;3.75;;;15.00;99.90;;;;;;5038675;28;20550;-87
2022/05/27 11:40:22;;;;;;;34.25;5.47;;;14.90;99.90;;;;;;5038737;28;20045;-87
2022/05/27 11:43:06;;;;;;;43.25;5.47;;;15.10;99.90;;;;;;5038557;28;20053;-87
2022/05/27 11:45:31;;;;;;;;;;;15.30;99.90;;;;;;5056487;28;20500;-86
2022/05/27 11:48:32;;;;;;;23.33;4.55;;;15.50;99.90;;;;;;5038174;28;19952;-87
2022/05/27 11:51:41;;;;;;;32.95;4.75;;;15.50;99.90;;;;;;5027665;28;20139;-87
2022/05/27 11:54:28;;;;;;;34.28;5.05;;;15.20;99.90;;;;;;5025290;28;20205;-86
2022/05/27 11:57:05;;;;;;;25.58;5.43;;;15.50;99.90;;;;;;5056087;28;20480;-86
2022/05/27 11:59:52;;;;;;;29.25;5.15;;;15.70;99.90;;;;;;5037996;28;20468;-86
2022/05/27 12:02:48;;;;;;;22.10;4.65;;;15.70;99.90;;;;;;5056017;28;20056;-86
2022/05/27 12:05:33;;;;;;;29.05;5.63;;;15.60;99.90;;;;;;5038193;28;20496;-86
2022/05/27 12:08:05;;;;;;;30.00;5.68;;;15.60;99.90;;;;;;5055735;28;20067;-85
2022/05/27 12:10:39;;;;;;;35.15;6.22;;;15.70;99.90;;;;;;5037889;28;20057;-86
2022/05/27 12:13:25;;;;;;;27.38;5.07;;;15.70;99.90;;;;;;5037806;28;20040;-85
2022/05/27 12:16:02;;;;;;;37.30;7.85;;;15.70;99.90;;;;;;5038085;28;20055;-85
2022/05/27 12:18:46;;;;;;;37.45;6.85;;;15.80;99.90;;;;;;5036510;28;20135;-85
2022/05/27 12:21:31;;;;;;;37.08;6.13;;;15.60;99.90;;;;;;5037886;28;20503;-85
2022/05/27 12:24:02;;;;;;;34.78;6.93;;;15.90;99.90;;;;;;5055526;28;20400;-86
2022/05/27 12:26:35;;;;;;;36.25;6.82;;;16.00;99.90;;;;;;5055363;28;20083;-85
2022/05/27 12:29:07;;;;;;;31.20;5.07;;;16.00;99.90;;;;;;5037587;28;20133;-85
2022/05/27 12:31:34;;;;;;;27.85;6.25;;;16.10;99.90;;;;;;5037843;28;20045;-86
2022/05/27 12:34:25;;;;;;;34.80;6.40;;;15.80;99.90;;;;;;5037649;28;20129;-85
2022/05/27 12:36:51;;;;;;;37.83;5.78;;;15.90;99.90;;;;;;5055328;28;20059;-85
2022/05/27 12:39:25;;;;;;;28.77;5.38;;;16.00;99.90;;;;;;5055383;28;20091;-85
2022/05/27 12:42:09;;;;;;;34.58;4.97;;;16.00;99.90;;;;;;5037426;28;20082;-86
2022/05/27 12:44:35;;;;;;;25.20;5.10;;;15.90;99.90;;;;;;5055306;28;20069;-85
2022/05/27 12:47:04;;;;;;;37.85;5.35;;;15.50;99.90;;;;;;5037305;28;20142;-85
2022/05/27 12:49:45;;;;;;;37.30;6.78;;;15.40;99.90;;;;;;5055073;28;20111;-86
2022/05/27 12:52:29;;;;;;;28.30;4.88;;;15.60;99.90;;;;;;5037336;28;20167;-86
2022/05/27 12:54:56;;;;;;;25.80;4.78;;;15.60;99.90;;;;;;5037371;28;20041;-84
2022/05/27 13:03:35;;;;;;;31.05;4.95;;;15.50;99.90;;;;;;5036807;28;20128;-83
2022/05/27 13:06:14;;;;;;;34.75;5.40;;;15.20;99.90;;;;;;5036689;28;20045;-84
2022/05/27 13:09:02;;;;;;;42.47;5.88;;;14.90;99.90;;;;;;5036840;28;20512;-84
2022/05/27 13:11:34;;;;;;;29.88;4.78;;;14.90;99.90;;;;;;5037183;28;20041;-84
2022/05/27 13:14:03;;;;;;;24.75;4.22;;;15.00;99.90;;;;;;5054728;28;20102;-84
2022/05/27 13:17:01;;;;;;;23.52;4.50;;;15.20;99.90;;;;;;5054484;28;20504;-84
2022/05/27 13:19:36;;;;;;;26.77;4.35;;;15.40;99.90;;;;;;5036418;28;20566;-84
2022/05/27 13:22:11;;;;;;;27.48;4.72;;;15.40;99.90;;;;;;5036813;28;20059;-85
2022/05/27 13:24:47;;;;;;;28.02;5.07;;;15.60;99.90;;;;;;5054530;28;20064;-84
2022/05/27 13:27:29;;;;;;;35.38;5.45;;;15.70;99.90;;;;;;5036530;28;20053;-85
2022/05/27 13:30:01;;;;;;;34.20;4.82;;;15.40;99.90;;;;;;5036181;28;20045;-85
2022/05/27 13:32:34;;;;;;;20.88;4.00;;;15.30;99.90;;;;;;5036412;28;20052;-84
2022/05/27 13:35:17;;;;;;;36.30;5.25;;;15.30;99.90;;;;;;5054394;28;20044;-85
2022/05/27 13:37:56;;;;;;;;;;;15.50;99.90;;;;;;5054700;28;20071;-85
2022/05/27 13:40:28;;;;;;;29.08;5.03;;;15.40;99.90;;;;;;5036131;28;19920;-85
2022/05/27 13:42:56;;;;;;;33.35;5.07;;;15.40;99.90;;;;;;5036367;28;20048;-87
2022/05/27 13:45:21;;;;;;;31.48;5.55;;;15.20;99.90;;;;;;5053959;28;20088;-87